Terminal Aerodrome Forecast
Issued by NWS

Home | Current Version | Previous Version | Text Only | Print | Product List | Glossary On
Versions: 1 2 3 4 5 6 7 8 9 10 11 12 13 14 15
064
FTUS42 KTBW 181500 AAA
TAFPGD
TAF AMD
KPGD 181500Z 1815/1912 06009G14KT P6SM SCT020 BKN100
      TEMPO 1815/1818 BKN015
     FM190000 05008KT P6SM BKN040 BKN250
     FM190900 04006KT P6SM SCT010 SCT250=

USA.gov is the U.S. government's official web portal to all federal, state and local government web resources and services.